sensor_id;sensor_type;location;lat;lon;timestamp;pressure;altitude;pressure_sealevel;temperature;humidity
77869;BME280;67231;59.144;37.934;2024-03-25T00:01:04;97787.38;;;2.25;80.30
77869;BME280;67231;59.144;37.934;2024-03-25T00:03:30;97784.44;;;2.28;80.43
77869;BME280;67231;59.144;37.934;2024-03-25T00:05:56;97774.81;;;2.28;80.60
77869;BME280;67231;59.144;37.934;2024-03-25T00:08:23;97775.31;;;2.32;80.22
77869;BME280;67231;59.144;37.934;2024-03-25T00:10:50;97780.25;;;2.35;80.39
77869;BME280;67231;59.144;37.934;2024-03-25T00:13:16;97773.06;;;2.37;79.97
77869;BME280;67231;59.144;37.934;2024-03-25T00:15:42;97774.06;;;2.36;79.90
77869;BME280;67231;59.144;37.934;2024-03-25T00:18:09;97785.03;;;2.40;80.16
77869;BME280;67231;59.144;37.934;2024-03-25T00:20:37;97781.72;;;2.37;80.57
77869;BME280;67231;59.144;37.934;2024-03-25T00:23:03;97782.41;;;2.40;80.57
77869;BME280;67231;59.144;37.934;2024-03-25T00:25:30;97770.47;;;2.45;80.15
77869;BME280;67231;59.144;37.934;2024-03-25T00:27:56;97776.25;;;2.49;79.98
77869;BME280;67231;59.144;37.934;2024-03-25T00:30:23;97785.56;;;2.51;79.96
77869;BME280;67231;59.144;37.934;2024-03-25T00:32:50;97783.59;;;2.53;80.31
77869;BME280;67231;59.144;37.934;2024-03-25T00:35:16;97776.75;;;2.52;80.12
77869;BME280;67231;59.144;37.934;2024-03-25T00:37:44;97782.28;;;2.49;80.65
77869;BME280;67231;59.144;37.934;2024-03-25T00:40:11;97769.19;;;2.49;80.43
77869;BME280;67231;59.144;37.934;2024-03-25T00:42:38;97770.81;;;2.50;80.58
77869;BME280;67231;59.144;37.934;2024-03-25T00:45:05;97762.66;;;2.53;80.73
77869;BME280;67231;59.144;37.934;2024-03-25T00:47:32;97766.78;;;2.56;80.37
77869;BME280;67231;59.144;37.934;2024-03-25T00:49:58;97757.41;;;2.53;80.76
77869;BME280;67231;59.144;37.934;2024-03-25T00:52:25;97748.59;;;2.54;80.71
77869;BME280;67231;59.144;37.934;2024-03-25T00:54:51;97751.88;;;2.57;80.69
77869;BME280;67231;59.144;37.934;2024-03-25T00:57:17;97745.34;;;2.61;80.77
77869;BME280;67231;59.144;37.934;2024-03-25T00:59:44;97740.13;;;2.61;81.21
77869;BME280;67231;59.144;37.934;2024-03-25T01:02:10;97744.03;;;2.65;81.33
77869;BME280;67231;59.144;37.934;2024-03-25T01:04:36;97741.13;;;2.68;81.37
77869;BME280;67231;59.144;37.934;2024-03-25T01:07:03;97739.03;;;2.71;80.95
77869;BME280;67231;59.144;37.934;2024-03-25T01:09:30;97738.56;;;2.76;80.98
77869;BME280;67231;59.144;37.934;2024-03-25T01:11:56;97726.75;;;2.80;81.39
77869;BME280;67231;59.144;37.934;2024-03-25T01:14:22;97726.94;;;2.87;81.48
77869;BME280;67231;59.144;37.934;2024-03-25T01:16:48;97722.03;;;2.92;81.67
77869;BME280;67231;59.144;37.934;2024-03-25T01:19:15;97721.06;;;3.01;81.42
77869;BME280;67231;59.144;37.934;2024-03-25T01:21:41;97718.94;;;3.05;81.84
77869;BME280;67231;59.144;37.934;2024-03-25T01:24:08;97711.75;;;3.07;80.97
77869;BME280;67231;59.144;37.934;2024-03-25T01:26:34;97715.03;;;3.09;81.22
77869;BME280;67231;59.144;37.934;2024-03-25T01:29:00;97711.13;;;3.13;81.83
77869;BME280;67231;59.144;37.934;2024-03-25T01:31:27;97715.38;;;3.14;81.11
77869;BME280;67231;59.144;37.934;2024-03-25T01:33:54;97702.25;;;3.14;81.53
77869;BME280;67231;59.144;37.934;2024-03-25T01:36:21;97704.56;;;3.17;82.11
77869;BME280;67231;59.144;37.934;2024-03-25T01:38:47;97700.28;;;3.16;81.91
77869;BME280;67231;59.144;37.934;2024-03-25T01:41:20;97704.88;;;3.14;81.69
77869;BME280;67231;59.144;37.934;2024-03-25T01:43:49;97714.56;;;3.14;81.67
77869;BME280;67231;59.144;37.934;2024-03-25T01:46:17;97717.19;;;3.14;82.06
77869;BME280;67231;59.144;37.934;2024-03-25T01:48:45;97717.00;;;3.15;82.30
77869;BME280;67231;59.144;37.934;2024-03-25T01:51:13;97729.47;;;3.13;81.83
77869;BME280;67231;59.144;37.934;2024-03-25T01:53:40;97721.44;;;3.15;82.22
77869;BME280;67231;59.144;37.934;2024-03-25T01:56:07;97730.44;;;3.12;82.07
77869;BME280;67231;59.144;37.934;2024-03-25T01:58:34;97725.50;;;3.09;82.42
77869;BME280;67231;59.144;37.934;2024-03-25T02:01:02;97731.06;;;3.06;82.07
77869;BME280;67231;59.144;37.934;2024-03-25T02:03:29;97731.22;;;3.04;82.26
77869;BME280;67231;59.144;37.934;2024-03-25T02:06:06;97726.00;;;3.04;82.13
77869;BME280;67231;59.144;37.934;2024-03-25T02:08:34;97719.44;;;3.00;82.36
77869;BME280;67231;59.144;37.934;2024-03-25T02:11:01;97722.41;;;2.97;82.16
77869;BME280;67231;59.144;37.934;2024-03-25T02:13:28;97713.03;;;2.95;82.43
77869;BME280;67231;59.144;37.934;2024-03-25T02:15:55;97730.56;;;2.86;82.11
77869;BME280;67231;59.144;37.934;2024-03-25T02:18:22;97719.88;;;2.79;82.42
77869;BME280;67231;59.144;37.934;2024-03-25T02:20:49;97717.25;;;2.79;82.51
77869;BME280;67231;59.144;37.934;2024-03-25T02:23:16;97737.06;;;2.73;82.27
77869;BME280;67231;59.144;37.934;2024-03-25T02:25:43;97730.63;;;2.68;82.19
77869;BME280;67231;59.144;37.934;2024-03-25T02:28:09;97738.47;;;2.60;81.95
77869;BME280;67231;59.144;37.934;2024-03-25T02:30:36;97737.94;;;2.48;81.81
77869;BME280;67231;59.144;37.934;2024-03-25T02:33:06;97749.19;;;2.40;82.23
77869;BME280;67231;59.144;37.934;2024-03-25T02:35:33;97741.97;;;2.34;81.98
77869;BME280;67231;59.144;37.934;2024-03-25T02:38:01;97747.81;;;2.28;81.88
77869;BME280;67231;59.144;37.934;2024-03-25T02:40:27;97748.31;;;2.23;81.88
77869;BME280;67231;59.144;37.934;2024-03-25T02:42:54;97754.81;;;2.19;82.06
77869;BME280;67231;59.144;37.934;2024-03-25T02:45:20;97765.59;;;2.16;82.17
77869;BME280;67231;59.144;37.934;2024-03-25T02:47:47;97763.78;;;2.16;81.94
77869;BME280;67231;59.144;37.934;2024-03-25T02:50:13;97762.47;;;2.12;81.92
77869;BME280;67231;59.144;37.934;2024-03-25T02:52:40;97767.66;;;2.04;82.00
77869;BME280;67231;59.144;37.934;2024-03-25T02:55:06;97775.09;;;1.99;81.43
77869;BME280;67231;59.144;37.934;2024-03-25T02:57:32;97774.44;;;1.97;81.58
77869;BME280;67231;59.144;37.934;2024-03-25T02:59:59;97782.44;;;1.95;81.59
77869;BME280;67231;59.144;37.934;2024-03-25T03:02:25;97786.50;;;1.90;81.54
77869;BME280;67231;59.144;37.934;2024-03-25T03:04:52;97780.22;;;1.82;81.62
77869;BME280;67231;59.144;37.934;2024-03-25T03:07:18;97794.91;;;1.75;81.37
77869;BME280;67231;59.144;37.934;2024-03-25T03:09:44;97786.38;;;1.73;81.69
77869;BME280;67231;59.144;37.934;2024-03-25T03:12:10;97788.47;;;1.70;81.79
77869;BME280;67231;59.144;37.934;2024-03-25T03:14:37;97809.53;;;1.68;81.22
77869;BME280;67231;59.144;37.934;2024-03-25T03:17:03;97801.97;;;1.65;80.63
77869;BME280;67231;59.144;37.934;2024-03-25T03:19:31;97810.97;;;1.62;81.38
77869;BME280;67231;59.144;37.934;2024-03-25T03:21:57;97811.78;;;1.63;81.40
77869;BME280;67231;59.144;37.934;2024-03-25T03:24:24;97811.78;;;1.63;81.25
77869;BME280;67231;59.144;37.934;2024-03-25T03:26:50;97819.91;;;1.60;81.12
77869;BME280;67231;59.144;37.934;2024-03-25T03:29:16;97821.56;;;1.61;81.31
77869;BME280;67231;59.144;37.934;2024-03-25T03:31:44;97828.06;;;1.57;81.29
77869;BME280;67231;59.144;37.934;2024-03-25T03:34:10;97827.38;;;1.55;80.61
77869;BME280;67231;59.144;37.934;2024-03-25T03:36:36;97837.84;;;1.55;80.73
77869;BME280;67231;59.144;37.934;2024-03-25T03:39:03;97840.97;;;1.58;80.74
77869;BME280;67231;59.144;37.934;2024-03-25T03:41:29;97837.53;;;1.58;80.80
77869;BME280;67231;59.144;37.934;2024-03-25T03:43:56;97841.78;;;1.59;80.71
77869;BME280;67231;59.144;37.934;2024-03-25T03:46:22;97850.91;;;1.55;80.72
77869;BME280;67231;59.144;37.934;2024-03-25T03:48:48;97856.59;;;1.50;80.59
77869;BME280;67231;59.144;37.934;2024-03-25T03:51:14;97860.00;;;1.51;80.82
77869;BME280;67231;59.144;37.934;2024-03-25T03:53:41;97857.53;;;1.49;80.89
77869;BME280;67231;59.144;37.934;2024-03-25T03:56:07;97866.88;;;1.52;80.86
77869;BME280;67231;59.144;37.934;2024-03-25T03:58:34;97866.88;;;1.52;81.14
77869;BME280;67231;59.144;37.934;2024-03-25T04:01:01;97880.31;;;1.57;80.71
77869;BME280;67231;59.144;37.934;2024-03-25T04:03:28;97875.41;;;1.54;80.49
77869;BME280;67231;59.144;37.934;2024-03-25T04:05:54;97887.94;;;1.50;80.13
77869;BME280;67231;59.144;37.934;2024-03-25T04:08:21;97896.88;;;1.48;80.60
77869;BME280;67231;59.144;37.934;2024-03-25T04:10:48;97892.94;;;1.43;80.61
77869;BME280;67231;59.144;37.934;2024-03-25T04:13:14;97894.59;;;1.44;80.92
77869;BME280;67231;59.144;37.934;2024-03-25T04:15:42;97895.13;;;1.48;80.63
77869;BME280;67231;59.144;37.934;2024-03-25T04:18:08;97898.84;;;1.45;80.27
77869;BME280;67231;59.144;37.934;2024-03-25T04:20:39;97912.34;;;1.41;80.59
77869;BME280;67231;59.144;37.934;2024-03-25T04:23:07;97905.19;;;1.43;80.38
77869;BME280;67231;59.144;37.934;2024-03-25T04:25:34;97913.84;;;1.43;80.66
77869;BME280;67231;59.144;37.934;2024-03-25T04:28:05;97917.78;;;1.48;80.62
77869;BME280;67231;59.144;37.934;2024-03-25T04:30:34;97927.66;;;1.54;80.78
77869;BME280;67231;59.144;37.934;2024-03-25T04:33:01;97925.13;;;1.62;80.46
77869;BME280;67231;59.144;37.934;2024-03-25T04:35:28;97923.38;;;1.62;80.37
77869;BME280;67231;59.144;37.934;2024-03-25T04:37:54;97939.72;;;1.64;80.49
77869;BME280;67231;59.144;37.934;2024-03-25T04:40:22;97947.69;;;1.63;80.38
77869;BME280;67231;59.144;37.934;2024-03-25T04:42:49;97948.50;;;1.63;80.72
77869;BME280;67231;59.144;37.934;2024-03-25T04:45:16;97932.53;;;1.67;80.37
77869;BME280;67231;59.144;37.934;2024-03-25T04:47:43;97961.28;;;1.67;80.34
77869;BME280;67231;59.144;37.934;2024-03-25T04:50:10;97971.59;;;1.68;80.28
77869;BME280;67231;59.144;37.934;2024-03-25T04:52:36;97961.84;;;1.70;80.20
77869;BME280;67231;59.144;37.934;2024-03-25T04:55:03;97967.75;;;1.72;79.99
77869;BME280;67231;59.144;37.934;2024-03-25T04:57:31;97963.84;;;1.76;79.99
77869;BME280;67231;59.144;37.934;2024-03-25T04:59:58;97972.69;;;1.75;80.13
77869;BME280;67231;59.144;37.934;2024-03-25T05:02:25;97989.19;;;1.76;79.85
77869;BME280;67231;59.144;37.934;2024-03-25T05:04:51;97982.94;;;1.87;79.84
77869;BME280;67231;59.144;37.934;2024-03-25T05:07:19;97989.91;;;1.96;79.46
77869;BME280;67231;59.144;37.934;2024-03-25T05:09:46;97995.88;;;2.06;79.57
77869;BME280;67231;59.144;37.934;2024-03-25T05:12:12;97995.50;;;2.19;79.56
77869;BME280;67231;59.144;37.934;2024-03-25T05:14:38;98000.75;;;2.19;79.03
77869;BME280;67231;59.144;37.934;2024-03-25T05:17:05;98001.34;;;2.13;79.06
77869;BME280;67231;59.144;37.934;2024-03-25T05:19:34;98016.38;;;2.11;78.97
77869;BME280;67231;59.144;37.934;2024-03-25T05:22:00;98012.44;;;1.97;79.18
77869;BME280;67231;59.144;37.934;2024-03-25T05:24:27;98024.78;;;1.87;79.22
77869;BME280;67231;59.144;37.934;2024-03-25T05:26:54;98036.78;;;1.79;79.13
77869;BME280;67231;59.144;37.934;2024-03-25T05:29:21;98040.38;;;1.78;79.63
77869;BME280;67231;59.144;37.934;2024-03-25T05:31:59;98045.59;;;1.78;79.60
77869;BME280;67231;59.144;37.934;2024-03-25T05:34:26;98059.63;;;1.77;79.69
77869;BME280;67231;59.144;37.934;2024-03-25T05:36:52;98060.06;;;1.73;79.54
77869;BME280;67231;59.144;37.934;2024-03-25T05:39:19;98066.53;;;1.78;79.74
77869;BME280;67231;59.144;37.934;2024-03-25T05:41:47;98068.25;;;1.88;79.76
77869;BME280;67231;59.144;37.934;2024-03-25T05:44:14;98071.41;;;1.91;79.64
77869;BME280;67231;59.144;37.934;2024-03-25T05:46:40;98071.13;;;1.94;79.59
77869;BME280;67231;59.144;37.934;2024-03-25T05:49:07;98086.75;;;2.04;80.05
77869;BME280;67231;59.144;37.934;2024-03-25T05:51:33;98077.34;;;2.11;79.59
77869;BME280;67231;59.144;37.934;2024-03-25T05:54:00;98079.00;;;2.12;79.39
77869;BME280;67231;59.144;37.934;2024-03-25T05:56:27;98099.41;;;2.09;79.47
77869;BME280;67231;59.144;37.934;2024-03-25T05:58:58;98101.09;;;2.00;79.68
77869;BME280;67231;59.144;37.934;2024-03-25T06:01:25;98114.84;;;2.02;80.04
77869;BME280;67231;59.144;37.934;2024-03-25T06:03:53;98112.03;;;2.13;79.76
77869;BME280;67231;59.144;37.934;2024-03-25T06:06:19;98128.13;;;2.18;79.84
77869;BME280;67231;59.144;37.934;2024-03-25T06:08:46;98135.84;;;2.20;79.56
77869;BME280;67231;59.144;37.934;2024-03-25T06:11:12;98140.63;;;2.25;79.94
77869;BME280;67231;59.144;37.934;2024-03-25T06:13:39;98156.38;;;2.43;79.56
77869;BME280;67231;59.144;37.934;2024-03-25T06:16:06;98159.69;;;2.63;79.69
77869;BME280;67231;59.144;37.934;2024-03-25T06:18:32;98167.91;;;2.68;79.23
77869;BME280;67231;59.144;37.934;2024-03-25T06:20:59;98172.19;;;2.69;78.72
77869;BME280;67231;59.144;37.934;2024-03-25T06:23:27;98175.78;;;2.68;78.88
77869;BME280;67231;59.144;37.934;2024-03-25T06:25:55;98173.16;;;2.68;79.31
77869;BME280;67231;59.144;37.934;2024-03-25T06:28:23;98193.00;;;2.70;79.13
77869;BME280;67231;59.144;37.934;2024-03-25T06:30:52;98209.00;;;3.13;79.04
77869;BME280;67231;59.144;37.934;2024-03-25T06:33:40;98213.00;;;3.43;77.95
77869;BME280;67231;59.144;37.934;2024-03-25T06:36:29;98236.78;;;3.86;77.45
77869;BME280;67231;59.144;37.934;2024-03-25T06:38:55;98232.06;;;3.98;76.78
77869;BME280;67231;59.144;37.934;2024-03-25T06:41:21;98242.13;;;4.03;77.20
77869;BME280;67231;59.144;37.934;2024-03-25T06:43:51;98245.75;;;4.01;76.32
77869;BME280;67231;59.144;37.934;2024-03-25T06:46:17;98250.78;;;3.95;77.14
77869;BME280;67231;59.144;37.934;2024-03-25T06:48:49;98255.03;;;3.70;77.18
77869;BME280;67231;59.144;37.934;2024-03-25T06:51:20;98265.97;;;3.65;77.71
77869;BME280;67231;59.144;37.934;2024-03-25T06:53:47;98277.88;;;3.59;77.21
77869;BME280;67231;59.144;37.934;2024-03-25T06:56:18;98294.97;;;3.45;77.79
77869;BME280;67231;59.144;37.934;2024-03-25T06:58:44;98297.22;;;3.40;77.59
77869;BME280;67231;59.144;37.934;2024-03-25T07:01:11;98310.47;;;3.39;77.56
77869;BME280;67231;59.144;37.934;2024-03-25T07:03:40;98308.44;;;3.33;77.91
77869;BME280;67231;59.144;37.934;2024-03-25T07:06:10;98322.63;;;3.12;77.53
77869;BME280;67231;59.144;37.934;2024-03-25T07:08:36;98333.69;;;3.06;77.43
77869;BME280;67231;59.144;37.934;2024-03-25T07:11:03;98335.34;;;3.07;77.63
77869;BME280;67231;59.144;37.934;2024-03-25T07:13:30;98340.31;;;3.10;77.76
77869;BME280;67231;59.144;37.934;2024-03-25T07:15:56;98354.66;;;3.06;77.54
77869;BME280;67231;59.144;37.934;2024-03-25T07:18:23;98357.66;;;3.11;77.55
77869;BME280;67231;59.144;37.934;2024-03-25T07:20:50;98366.84;;;3.25;77.75
77869;BME280;67231;59.144;37.934;2024-03-25T07:23:16;98358.63;;;3.38;77.48
77869;BME280;67231;59.144;37.934;2024-03-25T07:25:43;98376.09;;;3.47;77.40
77869;BME280;67231;59.144;37.934;2024-03-25T07:28:10;98377.28;;;3.53;77.22
77869;BME280;67231;59.144;37.934;2024-03-25T07:30:36;98390.94;;;3.56;77.80
77869;BME280;67231;59.144;37.934;2024-03-25T07:33:03;98393.56;;;3.56;76.87
77869;BME280;67231;59.144;37.934;2024-03-25T07:35:31;98395.78;;;3.51;77.21
77869;BME280;67231;59.144;37.934;2024-03-25T07:37:57;98402.34;;;3.65;76.80
77869;BME280;67231;59.144;37.934;2024-03-25T07:40:24;98405.13;;;3.63;76.31
77869;BME280;67231;59.144;37.934;2024-03-25T07:42:50;98417.28;;;3.64;76.11
77869;BME280;67231;59.144;37.934;2024-03-25T07:45:17;98426.09;;;3.63;76.50
77869;BME280;67231;59.144;37.934;2024-03-25T07:47:43;98423.84;;;3.69;76.81
77869;BME280;67231;59.144;37.934;2024-03-25T07:50:12;98436.97;;;3.69;75.98
77869;BME280;67231;59.144;37.934;2024-03-25T07:52:39;98431.88;;;3.85;75.64
77869;BME280;67231;59.144;37.934;2024-03-25T07:55:08;98456.56;;;3.92;75.77
77869;BME280;67231;59.144;37.934;2024-03-25T07:57:35;98452.44;;;3.90;76.12
77869;BME280;67231;59.144;37.934;2024-03-25T08:00:03;98467.94;;;3.83;75.61
77869;BME280;67231;59.144;37.934;2024-03-25T08:02:38;98474.34;;;3.80;76.22
77869;BME280;67231;59.144;37.934;2024-03-25T08:05:05;98478.16;;;3.86;75.47
77869;BME280;67231;59.144;37.934;2024-03-25T08:07:32;98483.75;;;3.73;75.48
77869;BME280;67231;59.144;37.934;2024-03-25T08:09:59;98504.22;;;3.70;76.29
77869;BME280;67231;59.144;37.934;2024-03-25T08:12:26;98495.06;;;3.74;75.45
77869;BME280;67231;59.144;37.934;2024-03-25T08:14:52;98501.97;;;3.75;75.80
77869;BME280;67231;59.144;37.934;2024-03-25T08:17:18;98515.41;;;3.90;75.94
77869;BME280;67231;59.144;37.934;2024-03-25T08:19:45;98510.66;;;4.03;75.32
77869;BME280;67231;59.144;37.934;2024-03-25T08:22:11;98524.91;;;4.36;75.45
77869;BME280;67231;59.144;37.934;2024-03-25T08:24:38;98533.84;;;4.44;74.71
77869;BME280;67231;59.144;37.934;2024-03-25T08:27:04;98536.41;;;4.35;74.07
77869;BME280;67231;59.144;37.934;2024-03-25T08:29:31;98543.06;;;4.48;73.60
77869;BME280;67231;59.144;37.934;2024-03-25T08:31:57;98542.16;;;4.75;74.50
77869;BME280;67231;59.144;37.934;2024-03-25T08:34:23;98543.13;;;4.92;73.57
77869;BME280;67231;59.144;37.934;2024-03-25T08:36:50;98557.88;;;4.85;72.96
77869;BME280;67231;59.144;37.934;2024-03-25T08:39:16;98570.53;;;4.89;72.92
77869;BME280;67231;59.144;37.934;2024-03-25T08:41:43;98567.03;;;4.81;72.56
77869;BME280;67231;59.144;37.934;2024-03-25T08:44:09;98572.44;;;4.79;73.20
77869;BME280;67231;59.144;37.934;2024-03-25T08:46:36;98585.63;;;4.87;72.79
77869;BME280;67231;59.144;37.934;2024-03-25T08:49:04;98593.66;;;5.04;72.28
77869;BME280;67231;59.144;37.934;2024-03-25T08:51:30;98599.06;;;5.20;72.22
77869;BME280;67231;59.144;37.934;2024-03-25T08:53:56;98604.56;;;5.09;72.15
77869;BME280;67231;59.144;37.934;2024-03-25T08:56:23;98605.00;;;5.04;72.07
77869;BME280;67231;59.144;37.934;2024-03-25T08:58:49;98617.63;;;5.19;72.11
77869;BME280;67231;59.144;37.934;2024-03-25T09:01:16;98631.13;;;5.24;71.22
77869;BME280;67231;59.144;37.934;2024-03-25T09:03:42;98622.56;;;5.22;71.32
77869;BME280;67231;59.144;37.934;2024-03-25T09:06:08;98636.94;;;5.09;71.76
77869;BME280;67231;59.144;37.934;2024-03-25T09:08:35;98640.47;;;5.00;70.95
77869;BME280;67231;59.144;37.934;2024-03-25T09:11:21;98647.38;;;4.83;71.39
77869;BME280;67231;59.144;37.934;2024-03-25T09:13:51;98662.06;;;4.76;71.14
77869;BME280;67231;59.144;37.934;2024-03-25T09:16:17;98667.19;;;4.78;71.75
77869;BME280;67231;59.144;37.934;2024-03-25T09:18:45;98674.41;;;4.76;70.71
77869;BME280;67231;59.144;37.934;2024-03-25T09:21:11;98684.63;;;4.79;71.02
77869;BME280;67231;59.144;37.934;2024-03-25T09:23:39;98691.41;;;4.71;71.88
77869;BME280;67231;59.144;37.934;2024-03-25T09:26:05;98693.84;;;4.83;71.48
77869;BME280;67231;59.144;37.934;2024-03-25T09:28:31;98705.22;;;5.01;71.54
77869;BME280;67231;59.144;37.934;2024-03-25T09:30:57;98707.53;;;5.04;71.66
77869;BME280;67231;59.144;37.934;2024-03-25T09:33:24;98707.38;;;5.06;71.61
77869;BME280;67231;59.144;37.934;2024-03-25T09:35:51;98730.84;;;4.89;71.78
77869;BME280;67231;59.144;37.934;2024-03-25T09:38:18;98730.09;;;4.79;71.56
77869;BME280;67231;59.144;37.934;2024-03-25T09:40:44;98743.38;;;4.78;72.00
77869;BME280;67231;59.144;37.934;2024-03-25T09:43:23;98745.50;;;4.74;72.20
77869;BME280;67231;59.144;37.934;2024-03-25T09:45:52;98745.50;;;4.74;71.72
77869;BME280;67231;59.144;37.934;2024-03-25T09:48:21;98752.66;;;4.82;71.70
77869;BME280;67231;59.144;37.934;2024-03-25T09:50:49;98763.53;;;4.87;70.83
77869;BME280;67231;59.144;37.934;2024-03-25T09:53:15;98784.38;;;4.70;71.74
77869;BME280;67231;59.144;37.934;2024-03-25T09:55:42;98771.38;;;4.69;71.18
77869;BME280;67231;59.144;37.934;2024-03-25T09:58:08;98788.34;;;4.74;70.72
77869;BME280;67231;59.144;37.934;2024-03-25T10:00:35;98783.47;;;4.80;71.63
77869;BME280;67231;59.144;37.934;2024-03-25T10:03:02;98798.00;;;4.84;71.03
77869;BME280;67231;59.144;37.934;2024-03-25T10:05:29;98808.22;;;4.87;71.07
77869;BME280;67231;59.144;37.934;2024-03-25T10:07:55;98807.94;;;4.90;70.78
77869;BME280;67231;59.144;37.934;2024-03-25T10:10:21;98806.78;;;4.92;70.83
77869;BME280;67231;59.144;37.934;2024-03-25T10:12:48;98815.38;;;4.95;70.64
77869;BME280;67231;59.144;37.934;2024-03-25T10:15:17;98813.19;;;4.90;69.93
77869;BME280;67231;59.144;37.934;2024-03-25T10:17:44;98828.44;;;4.86;71.12
77869;BME280;67231;59.144;37.934;2024-03-25T10:20:14;98824.56;;;4.81;70.41
77869;BME280;67231;59.144;37.934;2024-03-25T10:22:44;98832.59;;;4.79;70.50
77869;BME280;67231;59.144;37.934;2024-03-25T10:25:22;98829.16;;;4.79;70.32
77869;BME280;67231;59.144;37.934;2024-03-25T10:28:00;98845.78;;;4.69;69.76
77869;BME280;67231;59.144;37.934;2024-03-25T10:30:27;98842.63;;;4.56;70.16
77869;BME280;67231;59.144;37.934;2024-03-25T10:33:04;98858.34;;;4.76;69.89
77869;BME280;67231;59.144;37.934;2024-03-25T10:35:33;98848.56;;;4.96;69.14
77869;BME280;67231;59.144;37.934;2024-03-25T10:38:04;98860.31;;;5.29;68.14
77869;BME280;67231;59.144;37.934;2024-03-25T10:40:36;98853.53;;;5.72;67.88
77869;BME280;67231;59.144;37.934;2024-03-25T10:43:08;98864.13;;;5.80;66.71
77869;BME280;67231;59.144;37.934;2024-03-25T10:45:37;98872.69;;;5.82;66.48
77869;BME280;67231;59.144;37.934;2024-03-25T10:50:43;98883.50;;;5.79;65.94
77869;BME280;67231;59.144;37.934;2024-03-25T10:53:17;98871.50;;;5.77;65.37
77869;BME280;67231;59.144;37.934;2024-03-25T10:55:47;98871.34;;;5.78;65.22
77869;BME280;67231;59.144;37.934;2024-03-25T10:58:17;98881.28;;;5.84;64.89
77869;BME280;67231;59.144;37.934;2024-03-25T11:00:46;98880.13;;;5.87;64.37
77869;BME280;67231;59.144;37.934;2024-03-25T11:03:14;98878.81;;;5.83;64.77
77869;BME280;67231;59.144;37.934;2024-03-25T11:05:41;98885.56;;;5.86;63.94
77869;BME280;67231;59.144;37.934;2024-03-25T11:08:12;98879.72;;;6.10;63.70
77869;BME280;67231;59.144;37.934;2024-03-25T11:10:46;98888.13;;;6.31;62.65
77869;BME280;67231;59.144;37.934;2024-03-25T11:13:19;98884.59;;;6.23;62.03
77869;BME280;67231;59.144;37.934;2024-03-25T11:15:48;98908.59;;;6.19;62.10
77869;BME280;67231;59.144;37.934;2024-03-25T11:18:21;98893.34;;;6.05;62.00
77869;BME280;67231;59.144;37.934;2024-03-25T11:21:00;98909.31;;;6.04;61.90
77869;BME280;67231;59.144;37.934;2024-03-25T11:23:35;98915.72;;;5.91;62.06
77869;BME280;67231;59.144;37.934;2024-03-25T11:26:02;98915.66;;;5.83;62.56
77869;BME280;67231;59.144;37.934;2024-03-25T11:28:29;98921.94;;;5.72;62.51
77869;BME280;67231;59.144;37.934;2024-03-25T11:30:56;98909.59;;;5.73;62.54
77869;BME280;67231;59.144;37.934;2024-03-25T11:33:22;98920.47;;;5.88;62.40
77869;BME280;67231;59.144;37.934;2024-03-25T11:35:50;98927.13;;;6.10;62.00
77869;BME280;67231;59.144;37.934;2024-03-25T11:38:17;98927.03;;;6.19;61.48
77869;BME280;67231;59.144;37.934;2024-03-25T11:40:45;98926.13;;;6.29;61.54
77869;BME280;67231;59.144;37.934;2024-03-25T11:43:19;98935.47;;;6.23;61.08
77869;BME280;67231;59.144;37.934;2024-03-25T11:45:49;98928.63;;;6.12;60.94
77869;BME280;67231;59.144;37.934;2024-03-25T11:48:16;98939.31;;;6.11;61.19
77869;BME280;67231;59.144;37.934;2024-03-25T11:50:45;98936.53;;;6.12;60.85
77869;BME280;67231;59.144;37.934;2024-03-25T11:53:17;98949.78;;;6.20;60.33
77869;BME280;67231;59.144;37.934;2024-03-25T11:55:47;98956.09;;;6.28;60.69
77869;BME280;67231;59.144;37.934;2024-03-25T11:58:14;98959.63;;;6.36;60.25
77869;BME280;67231;59.144;37.934;2024-03-25T12:00:45;98972.34;;;6.41;60.08
77869;BME280;67231;59.144;37.934;2024-03-25T12:03:15;98951.56;;;6.38;59.79
77869;BME280;67231;59.144;37.934;2024-03-25T12:05:45;98968.50;;;6.35;59.53
77869;BME280;67231;59.144;37.934;2024-03-25T12:08:11;98967.44;;;6.46;59.65
77869;BME280;67231;59.144;37.934;2024-03-25T12:10:39;98974.16;;;6.59;59.58
77869;BME280;67231;59.144;37.934;2024-03-25T12:13:25;98975.06;;;6.49;60.05
77869;BME280;67231;59.144;37.934;2024-03-25T12:15:52;98981.00;;;6.33;59.95
77869;BME280;67231;59.144;37.934;2024-03-25T12:18:20;98987.47;;;6.21;59.66
77869;BME280;67231;59.144;37.934;2024-03-25T12:20:48;98996.50;;;6.18;59.81
77869;BME280;67231;59.144;37.934;2024-03-25T12:23:14;98995.66;;;6.00;59.82
77869;BME280;67231;59.144;37.934;2024-03-25T12:25:41;98997.88;;;5.95;59.78
77869;BME280;67231;59.144;37.934;2024-03-25T12:28:08;99006.34;;;5.89;59.43
77869;BME280;67231;59.144;37.934;2024-03-25T12:30:54;99007.50;;;5.86;59.05
77869;BME280;67231;59.144;37.934;2024-03-25T12:33:24;99014.53;;;5.86;59.42
77869;BME280;67231;59.144;37.934;2024-03-25T12:35:52;99006.22;;;5.90;59.79
77869;BME280;67231;59.144;37.934;2024-03-25T12:38:30;99002.59;;;6.01;59.61
77869;BME280;67231;59.144;37.934;2024-03-25T12:41:07;99013.34;;;6.08;59.49
77869;BME280;67231;59.144;37.934;2024-03-25T12:43:36;99029.81;;;6.10;59.58
77869;BME280;67231;59.144;37.934;2024-03-25T12:46:03;99025.03;;;6.05;59.41
77869;BME280;67231;59.144;37.934;2024-03-25T12:48:30;99041.41;;;5.99;59.84
77869;BME280;67231;59.144;37.934;2024-03-25T12:50:56;99040.81;;;5.95;59.94
77869;BME280;67231;59.144;37.934;2024-03-25T12:53:23;99044.75;;;5.91;60.18
77869;BME280;67231;59.144;37.934;2024-03-25T12:55:49;99043.91;;;5.91;60.17
77869;BME280;67231;59.144;37.934;2024-03-25T12:58:15;99045.81;;;5.98;60.43
77869;BME280;67231;59.144;37.934;2024-03-25T13:00:42;99059.84;;;5.99;59.98
77869;BME280;67231;59.144;37.934;2024-03-25T13:03:09;99056.31;;;6.08;60.16
77869;BME280;67231;59.144;37.934;2024-03-25T13:05:36;99067.94;;;6.15;59.58